createdAt,value
2019-03-22T00:00:39.238Z,22.13
2019-03-22T00:03:09.022Z,23.33
2019-03-22T00:05:38.819Z,23.00
2019-03-22T00:08:08.818Z,23.23
2019-03-22T00:10:38.585Z,24.33
2019-03-22T00:13:08.371Z,23.33
2019-03-22T00:15:38.192Z,23.83
2019-03-22T00:18:08.135Z,20.70
2019-03-22T00:20:37.938Z,22.23
2019-03-22T00:23:07.806Z,21.87
2019-03-22T00:25:37.843Z,21.77
2019-03-22T00:28:07.839Z,22.53
2019-03-22T00:30:37.653Z,23.03
2019-03-22T00:33:07.570Z,23.17
2019-03-22T00:35:37.427Z,24.37
2019-03-22T00:38:07.401Z,22.13
2019-03-22T00:40:37.662Z,23.30
2019-03-22T00:43:07.464Z,23.77
2019-03-22T00:45:37.437Z,24.97
2019-03-22T00:48:07.218Z,25.57
2019-03-22T00:50:37.125Z,25.40
2019-03-22T00:53:07.009Z,24.77
2019-03-22T00:55:37.058Z,25.83
2019-03-22T00:58:06.821Z,24.83
2019-03-22T01:00:36.624Z,27.53
2019-03-22T01:03:06.462Z,26.93
2019-03-22T01:05:36.238Z,27.37
2019-03-22T01:08:06.356Z,26.73
2019-03-22T01:10:36.614Z,28.63
2019-03-22T01:13:06.321Z,28.83
2019-03-22T01:15:36.554Z,25.23
2019-03-22T01:18:06.523Z,25.70
2019-03-22T01:20:36.332Z,26.43
2019-03-22T01:23:06.145Z,27.47
2019-03-22T01:25:35.918Z,28.00
2019-03-22T01:28:05.778Z,25.13
2019-03-22T01:30:35.654Z,25.30
2019-03-22T01:33:05.453Z,27.40
2019-03-22T01:35:35.319Z,27.37
2019-03-22T01:38:05.145Z,28.10
2019-03-22T01:40:34.927Z,28.70
2019-03-22T01:43:04.693Z,28.67
2019-03-22T01:45:34.569Z,29.70
2019-03-22T01:48:04.538Z,30.23
2019-03-22T01:50:34.558Z,29.77
2019-03-22T01:53:04.373Z,29.70
2019-03-22T01:55:34.153Z,27.47
2019-03-22T01:58:03.969Z,29.10
2019-03-22T02:00:33.802Z,29.50
2019-03-22T02:03:03.593Z,30.43
2019-03-22T02:05:33.367Z,29.20
2019-03-22T02:08:03.711Z,29.03
2019-03-22T02:10:33.466Z,28.63
2019-03-22T02:13:03.257Z,28.27
2019-03-22T02:15:33.068Z,27.47
2019-03-22T02:18:03.361Z,28.80
2019-03-22T02:20:33.207Z,29.50
2019-03-22T02:23:02.958Z,29.27
2019-03-22T02:25:32.791Z,29.17
2019-03-22T02:28:04.434Z,28.10
2019-03-22T02:30:34.018Z,27.23
2019-03-22T02:33:03.868Z,27.23
2019-03-22T02:35:33.756Z,27.33
2019-03-22T02:38:03.554Z,28.43
2019-03-22T02:40:33.467Z,26.47
2019-03-22T02:43:03.315Z,27.77
2019-03-22T02:45:33.150Z,25.77
2019-03-22T02:48:02.919Z,24.07
2019-03-22T02:50:32.703Z,24.13
2019-03-22T02:53:02.538Z,25.17
2019-03-22T02:55:32.473Z,24.73
2019-03-22T02:58:02.337Z,24.77
2019-03-22T03:00:32.403Z,26.33
2019-03-22T03:03:02.367Z,26.43
2019-03-22T03:05:32.218Z,27.20
2019-03-22T03:08:02.033Z,26.83
2019-03-22T03:10:31.869Z,26.20
2019-03-22T03:13:01.672Z,29.03
2019-03-22T03:15:31.607Z,28.97
2019-03-22T03:18:01.439Z,29.83
2019-03-22T03:20:31.269Z,30.50
2019-03-22T03:23:01.108Z,30.80
2019-03-22T03:25:30.975Z,30.57
2019-03-22T03:28:00.762Z,30.63
2019-03-22T03:30:30.614Z,31.70
2019-03-22T03:33:00.600Z,33.13
2019-03-22T03:35:30.662Z,31.37
2019-03-22T03:38:00.471Z,31.43
2019-03-22T03:40:30.265Z,31.93
2019-03-22T03:43:00.394Z,32.93
2019-03-22T03:45:33.461Z,32.77
2019-03-22T03:48:04.050Z,32.07
2019-03-22T03:50:33.802Z,31.83
2019-03-22T03:53:04.111Z,34.23
2019-03-22T03:55:33.838Z,34.37
2019-03-22T03:58:04.149Z,33.47
2019-03-22T04:00:33.915Z,32.97
2019-03-22T04:03:03.710Z,33.00
2019-03-22T04:05:33.674Z,34.60
2019-03-22T04:08:03.497Z,34.07
2019-03-22T04:10:33.270Z,33.97
2019-03-22T04:13:03.141Z,34.90
2019-03-22T04:15:32.885Z,34.60
2019-03-22T04:18:02.632Z,34.73
2019-03-22T04:20:32.444Z,33.30
2019-03-22T04:23:02.296Z,35.53
2019-03-22T04:25:32.203Z,33.13
2019-03-22T04:28:02.096Z,33.17
2019-03-22T04:30:31.914Z,33.43
2019-03-22T04:33:01.685Z,34.03
2019-03-22T04:35:31.439Z,34.60
2019-03-22T04:38:01.417Z,33.20
2019-03-22T04:40:31.251Z,34.63
2019-03-22T04:43:01.022Z,35.57
2019-03-22T04:45:32.201Z,34.53
2019-03-22T04:48:10.340Z,29.67
2019-03-22T04:50:44.024Z,32.13
2019-03-22T04:53:18.674Z,34.27
2019-03-22T04:55:53.286Z,35.80
2019-03-22T04:58:24.542Z,35.53
2019-03-22T05:00:57.295Z,36.20
2019-03-22T05:03:28.616Z,33.17
2019-03-22T05:06:00.703Z,34.80
2019-03-22T05:08:33.865Z,34.63
2019-03-22T05:11:06.681Z,37.37
2019-03-22T05:13:38.151Z,37.50
2019-03-22T05:16:12.056Z,36.43
2019-03-22T05:18:45.301Z,34.50
2019-03-22T05:21:17.081Z,37.63
2019-03-22T05:23:49.138Z,34.83
2019-03-22T05:26:20.619Z,37.40
2019-03-22T05:28:51.769Z,33.90
2019-03-22T05:31:39.407Z,36.07
2019-03-22T05:34:09.081Z,34.67
2019-03-22T05:36:38.773Z,34.67
2019-03-22T05:39:10.170Z,35.53
2019-03-22T05:41:40.044Z,36.83
2019-03-22T05:44:28.761Z,33.73
2019-03-22T05:46:58.533Z,32.60
2019-03-22T05:49:28.331Z,33.40
2019-03-22T05:51:58.425Z,34.90
2019-03-22T05:54:28.182Z,35.03
2019-03-22T05:56:57.977Z,34.23
2019-03-22T05:59:27.784Z,35.03
2019-03-22T06:01:57.623Z,34.90
2019-03-22T06:04:27.481Z,34.40
2019-03-22T06:07:16.039Z,37.20
2019-03-22T06:09:45.949Z,35.60
2019-03-22T06:12:15.949Z,35.03
2019-03-22T06:14:45.791Z,33.27
2019-03-22T06:17:15.676Z,33.30
2019-03-22T06:19:45.534Z,31.83
2019-03-22T06:22:15.318Z,33.27
2019-03-22T06:24:45.192Z,31.63
2019-03-22T06:27:15.082Z,33.03
2019-03-22T06:29:53.795Z,31.53
2019-03-22T06:32:16.496Z,31.63
2019-03-22T06:34:46.694Z,31.33
2019-03-22T06:37:16.539Z,32.80
2019-03-22T06:39:46.270Z,32.33
2019-03-22T06:42:16.232Z,31.70
2019-03-22T06:44:45.963Z,32.47
2019-03-22T06:47:15.891Z,30.77
2019-03-22T06:49:45.719Z,29.50
2019-03-22T06:52:15.514Z,28.23
2019-03-22T06:54:45.353Z,28.87
2019-03-22T06:57:15.239Z,30.17
2019-03-22T06:59:46.504Z,29.20
2019-03-22T07:02:16.322Z,29.67
2019-03-22T07:04:46.269Z,27.33
2019-03-22T07:07:16.083Z,25.80
2019-03-22T07:09:45.924Z,26.27
2019-03-22T07:12:15.710Z,26.00
2019-03-22T07:14:45.617Z,26.47
2019-03-22T07:17:15.467Z,27.53
2019-03-22T07:19:45.312Z,28.50
2019-03-22T07:22:15.119Z,29.00
2019-03-22T07:24:44.935Z,27.93
2019-03-22T07:27:14.745Z,29.30
2019-03-22T07:29:44.536Z,26.50
2019-03-22T07:32:14.368Z,28.40
2019-03-22T07:34:44.346Z,26.73
2019-03-22T07:37:14.112Z,26.70
2019-03-22T07:39:44.019Z,29.40
2019-03-22T07:42:13.875Z,26.93
2019-03-22T07:44:43.679Z,27.87
2019-03-22T07:47:13.511Z,27.93
2019-03-22T07:49:43.282Z,26.07
2019-03-22T07:52:13.077Z,25.13
2019-03-22T07:54:42.874Z,25.03
2019-03-22T07:57:12.670Z,26.90
2019-03-22T07:59:42.509Z,26.23
2019-03-22T08:02:12.542Z,26.60
2019-03-22T08:04:42.780Z,28.63
2019-03-22T08:07:12.576Z,23.80
2019-03-22T08:09:42.578Z,23.90
2019-03-22T08:12:12.614Z,25.33
2019-03-22T08:14:42.466Z,26.30
2019-03-22T08:17:12.653Z,26.63
2019-03-22T08:19:42.517Z,26.60
2019-03-22T08:22:12.407Z,26.60
2019-03-22T08:24:42.230Z,26.00
2019-03-22T08:27:12.100Z,26.13
2019-03-22T08:29:41.946Z,26.73
2019-03-22T08:32:11.758Z,25.40
2019-03-22T08:34:41.665Z,25.13
2019-03-22T08:37:11.435Z,24.90
2019-03-22T08:39:41.254Z,24.30
2019-03-22T08:42:29.886Z,25.40
2019-03-22T08:45:00.293Z,26.73
2019-03-22T08:47:34.246Z,25.27
2019-03-22T08:50:01.903Z,25.57
2019-03-22T08:52:31.871Z,26.43
2019-03-22T08:55:01.844Z,26.37
2019-03-22T08:57:31.956Z,25.60
2019-03-22T09:00:03.937Z,26.50
2019-03-22T09:02:33.896Z,25.13
2019-03-22T09:05:04.247Z,26.47
2019-03-22T09:07:34.212Z,26.83
2019-03-22T09:10:04.991Z,27.20
2019-03-22T09:12:34.853Z,25.97
2019-03-22T09:15:05.167Z,25.57
2019-03-22T09:17:34.992Z,23.93
2019-03-22T09:20:05.651Z,26.40
2019-03-22T09:22:35.636Z,26.37
2019-03-22T09:25:06.049Z,27.13
2019-03-22T09:27:36.755Z,25.63
2019-03-22T09:30:09.855Z,25.07
2019-03-22T09:32:39.866Z,25.60
2019-03-22T09:35:09.798Z,26.27
2019-03-22T09:37:39.661Z,25.40
2019-03-22T09:40:10.151Z,26.07
2019-03-22T09:42:40.026Z,26.93
2019-03-22T09:45:10.231Z,26.37
2019-03-22T09:47:41.531Z,25.83
2019-03-22T09:50:12.368Z,26.67
2019-03-22T09:52:42.264Z,26.20
2019-03-22T09:55:14.327Z,26.43
2019-03-22T09:57:44.624Z,27.37
2019-03-22T10:00:23.155Z,26.37
2019-03-22T10:02:53.250Z,27.70
2019-03-22T10:05:23.107Z,28.20
2019-03-22T10:07:52.938Z,29.47
2019-03-22T10:10:23.290Z,28.10
2019-03-22T10:12:53.138Z,28.73
2019-03-22T10:15:23.018Z,28.53
2019-03-22T10:17:53.285Z,29.13
2019-03-22T10:20:23.162Z,29.07
2019-03-22T10:22:53.015Z,29.27
2019-03-22T10:25:22.818Z,30.03
2019-03-22T10:27:52.983Z,30.63
2019-03-22T10:30:23.047Z,30.63
2019-03-22T10:32:53.262Z,31.60
2019-03-22T10:35:26.369Z,31.03
2019-03-22T10:38:00.460Z,32.47
2019-03-22T10:40:26.569Z,28.43
2019-03-22T10:42:56.805Z,30.10
2019-03-22T10:45:26.642Z,30.70
2019-03-22T10:47:56.592Z,27.97
2019-03-22T10:50:26.453Z,29.33
2019-03-22T10:52:56.335Z,32.07
2019-03-22T10:55:30.204Z,32.13
2019-03-22T10:57:57.814Z,30.63
2019-03-22T11:00:27.901Z,28.43
2019-03-22T11:02:57.686Z,32.90
2019-03-22T11:05:27.584Z,32.47
2019-03-22T11:07:57.772Z,30.23
2019-03-22T11:10:27.597Z,28.77
2019-03-22T11:12:57.442Z,27.10
2019-03-22T11:15:27.297Z,32.20
2019-03-22T11:17:57.257Z,28.37
2019-03-22T11:20:27.147Z,34.30
2019-03-22T11:22:57.238Z,34.10
2019-03-22T11:25:27.079Z,34.53
2019-03-22T11:27:57.022Z,31.60
2019-03-22T11:30:26.881Z,26.90
2019-03-22T11:32:56.964Z,31.57
2019-03-22T11:35:26.927Z,34.13
2019-03-22T11:37:56.983Z,33.77
2019-03-22T11:40:26.931Z,37.03
2019-03-22T11:43:08.165Z,34.00
2019-03-22T11:45:31.679Z,33.87
2019-03-22T11:48:02.898Z,35.63
2019-03-22T11:50:32.901Z,35.07
2019-03-22T11:53:03.006Z,34.53
2019-03-22T11:55:32.910Z,33.10
2019-03-22T11:58:02.924Z,35.27
2019-03-22T12:00:33.027Z,31.03
2019-03-22T12:03:02.981Z,35.40
2019-03-22T12:05:40.086Z,34.57
2019-03-22T12:08:05.018Z,34.77
2019-03-22T12:10:34.837Z,33.87
2019-03-22T12:13:05.002Z,37.93
2019-03-22T12:15:34.857Z,37.27
2019-03-22T12:18:04.818Z,36.23
2019-03-22T12:20:34.899Z,38.50
2019-03-22T12:23:05.181Z,38.97
2019-03-22T12:25:34.991Z,39.40
2019-03-22T12:28:04.923Z,39.50
2019-03-22T12:30:34.714Z,39.87
2019-03-22T12:33:04.529Z,39.90
2019-03-22T12:35:34.362Z,32.80
2019-03-22T12:38:04.378Z,39.37
2019-03-22T12:40:34.203Z,42.07
2019-03-22T12:43:04.001Z,39.07
2019-03-22T12:45:34.475Z,37.13
2019-03-22T12:48:04.721Z,40.67
2019-03-22T12:50:34.670Z,36.43
2019-03-22T12:53:04.482Z,38.23
2019-03-22T12:55:34.281Z,37.13
2019-03-22T12:58:04.179Z,40.37
2019-03-22T13:00:34.134Z,38.53
2019-03-22T13:03:03.932Z,40.63
2019-03-22T13:05:33.706Z,39.43
2019-03-22T13:08:03.558Z,41.90
2019-03-22T13:10:33.747Z,41.60
2019-03-22T13:13:03.621Z,40.13
2019-03-22T13:15:33.438Z,37.10
2019-03-22T13:18:14.689Z,33.47
2019-03-22T13:20:44.513Z,39.40
2019-03-22T13:23:14.349Z,39.90
2019-03-22T13:25:44.155Z,38.83
2019-03-22T13:28:14.154Z,40.23
2019-03-22T13:30:43.958Z,41.03
2019-03-22T13:33:13.821Z,39.53
2019-03-22T13:35:43.793Z,41.27
2019-03-22T13:38:13.665Z,42.20
2019-03-22T13:40:43.683Z,39.73
2019-03-22T13:43:13.585Z,37.07
2019-03-22T13:45:43.410Z,38.83
2019-03-22T13:48:13.298Z,39.40
2019-03-22T13:50:43.207Z,41.93
2019-03-22T13:53:31.970Z,39.60
2019-03-22T13:56:01.841Z,39.83
2019-03-22T13:58:31.671Z,38.03
2019-03-22T14:01:01.548Z,41.67
2019-03-22T14:03:33.807Z,39.67
2019-03-22T14:06:03.631Z,39.30
2019-03-22T14:08:33.481Z,33.90
2019-03-22T14:11:03.374Z,39.23
2019-03-22T14:13:33.210Z,39.73
2019-03-22T14:16:03.055Z,38.90
2019-03-22T14:18:32.851Z,38.33
2019-03-22T14:21:02.667Z,39.50
2019-03-22T14:23:32.842Z,39.87
2019-03-22T14:26:02.718Z,38.00
2019-03-22T14:28:32.932Z,39.87
2019-03-22T14:31:02.812Z,38.33
2019-03-22T14:33:33.143Z,39.70
2019-03-22T14:36:03.044Z,39.27
2019-03-22T14:38:33.067Z,39.97
2019-03-22T14:41:02.910Z,38.43
2019-03-22T14:43:32.718Z,39.33
2019-03-22T14:46:02.689Z,39.20
2019-03-22T14:48:32.599Z,38.37
2019-03-22T14:51:02.475Z,35.23
2019-03-22T14:53:32.330Z,35.50
2019-03-22T14:56:02.247Z,37.47
2019-03-22T14:58:32.281Z,38.93
2019-03-22T15:01:02.175Z,38.93
2019-03-22T15:03:32.038Z,38.43
2019-03-22T15:06:01.849Z,38.43
2019-03-22T15:08:31.674Z,37.83
2019-03-22T15:11:01.663Z,36.73
2019-03-22T15:13:41.399Z,37.33
2019-03-22T15:16:29.053Z,37.80
2019-03-22T15:19:09.779Z,35.63
2019-03-22T15:22:10.714Z,35.63
2019-03-22T15:24:59.517Z,34.20
2019-03-22T15:27:59.600Z,36.00
2019-03-22T15:31:06.630Z,33.73
2019-03-22T15:34:04.876Z,33.17
2019-03-22T15:37:00.068Z,35.47
2019-03-22T15:39:47.720Z,34.43
2019-03-22T15:42:17.640Z,33.13
2019-03-22T15:44:47.550Z,32.83
2019-03-22T15:47:17.528Z,33.93
2019-03-22T15:49:47.402Z,33.70
2019-03-22T15:52:17.236Z,32.90
2019-03-22T15:54:47.014Z,29.33
2019-03-22T15:57:16.921Z,31.00
2019-03-22T15:59:46.718Z,31.53
2019-03-22T16:02:16.609Z,30.93
2019-03-22T16:04:46.475Z,29.63
2019-03-22T16:07:16.396Z,28.97
2019-03-22T16:09:46.248Z,29.27
2019-03-22T16:12:16.073Z,36.53
2019-03-22T16:14:45.871Z,39.23
2019-03-22T16:17:16.023Z,43.67
2019-03-22T16:19:45.902Z,44.73
2019-03-22T16:22:15.947Z,41.93
2019-03-22T16:24:46.013Z,43.60
2019-03-22T16:27:15.869Z,43.60
2019-03-22T16:29:45.847Z,43.17
2019-03-22T16:32:16.036Z,44.73
2019-03-22T16:34:45.821Z,45.17
2019-03-22T16:37:16.148Z,44.13
2019-03-22T16:39:49.161Z,43.47
2019-03-22T16:42:19.547Z,45.20
2019-03-22T16:44:52.109Z,44.93
2019-03-22T16:47:25.051Z,45.50
2019-03-22T16:49:57.387Z,44.63
2019-03-22T16:52:28.907Z,45.03
2019-03-22T16:54:59.162Z,45.20
2019-03-22T16:57:29.214Z,44.50
2019-03-22T16:59:59.315Z,44.57
2019-03-22T17:02:29.435Z,44.83
2019-03-22T17:04:59.507Z,42.07
2019-03-22T17:07:29.562Z,45.77
2019-03-22T17:10:00.359Z,41.90
2019-03-22T17:12:30.499Z,42.77
2019-03-22T17:15:00.614Z,35.87
2019-03-22T17:17:30.548Z,33.60
2019-03-22T17:20:00.632Z,40.53
2019-03-22T17:22:30.823Z,34.13
2019-03-22T17:25:01.111Z,37.67
2019-03-22T17:27:30.927Z,42.90
2019-03-22T17:30:00.791Z,41.00
2019-03-22T17:32:30.665Z,43.17
2019-03-22T17:35:00.578Z,42.00
2019-03-22T17:37:30.859Z,42.17
2019-03-22T17:40:01.218Z,42.00
2019-03-22T17:42:31.153Z,38.27
2019-03-22T17:45:01.053Z,44.10
2019-03-22T17:47:30.938Z,45.57
2019-03-22T17:50:01.085Z,47.37
2019-03-22T17:52:31.099Z,45.20
2019-03-22T17:55:01.303Z,45.90
2019-03-22T17:57:32.299Z,42.43
2019-03-22T18:00:02.240Z,45.13
2019-03-22T18:02:33.741Z,44.37
2019-03-22T18:05:03.639Z,47.00
2019-03-22T18:07:33.571Z,44.97
2019-03-22T18:10:03.734Z,46.23
2019-03-22T18:12:33.530Z,41.30
2019-03-22T18:15:03.407Z,39.87
2019-03-22T18:17:34.514Z,41.93
2019-03-22T18:20:05.262Z,42.70
2019-03-22T18:22:35.668Z,40.17
2019-03-22T18:25:07.126Z,32.90
2019-03-22T18:27:37.043Z,34.17
2019-03-22T18:30:08.198Z,35.50
2019-03-22T18:32:37.999Z,35.27
2019-03-22T18:35:08.283Z,30.00
2019-03-22T18:37:38.128Z,30.70
2019-03-22T18:40:08.393Z,35.23
2019-03-22T18:42:38.409Z,36.63
2019-03-22T18:45:10.075Z,36.53
2019-03-22T18:47:39.978Z,37.73
2019-03-22T18:50:10.304Z,36.60
2019-03-22T18:52:40.225Z,37.83
2019-03-22T18:55:10.987Z,37.27
2019-03-22T18:57:40.968Z,29.80
2019-03-22T19:00:12.916Z,36.17
2019-03-22T19:02:43.130Z,31.13
2019-03-22T19:05:14.477Z,33.40
2019-03-22T19:07:44.476Z,33.27
2019-03-22T19:10:15.074Z,32.47
2019-03-22T19:12:49.076Z,28.20
2019-03-22T19:15:19.136Z,31.80
2019-03-22T19:17:52.152Z,25.93
2019-03-22T19:20:23.167Z,31.07
2019-03-22T19:22:53.305Z,31.23
2019-03-22T19:25:23.231Z,33.93
2019-03-22T19:27:53.125Z,27.63
2019-03-22T19:30:23.317Z,32.97
2019-03-22T19:32:53.685Z,30.83
2019-03-22T19:35:23.748Z,34.47
2019-03-22T19:37:53.919Z,32.73
2019-03-22T19:40:24.631Z,31.50
2019-03-22T19:42:54.581Z,27.83
2019-03-22T19:45:24.415Z,29.23
2019-03-22T19:47:54.314Z,35.67
2019-03-22T19:50:24.421Z,30.73
2019-03-22T19:52:54.745Z,32.40
2019-03-22T19:55:25.041Z,25.97
2019-03-22T19:57:55.276Z,31.83
2019-03-22T20:00:34.418Z,27.23
2019-03-22T20:03:04.305Z,50.43
2019-03-22T20:05:35.099Z,32.93
2019-03-22T20:08:05.174Z,45.47
2019-03-22T20:10:34.958Z,56.93
2019-03-22T20:13:04.752Z,52.53
2019-03-22T20:15:34.984Z,59.47
2019-03-22T20:18:06.240Z,49.57
2019-03-22T20:20:36.311Z,60.17
2019-03-22T20:23:06.174Z,46.63
2019-03-22T20:25:36.282Z,48.97
2019-03-22T20:28:06.139Z,47.67
2019-03-22T20:30:36.082Z,44.67
2019-03-22T20:33:06.318Z,44.33
2019-03-22T20:35:36.153Z,42.77
2019-03-22T20:38:06.083Z,44.47
2019-03-22T20:40:36.722Z,42.90
2019-03-22T20:43:06.906Z,33.10
2019-03-22T20:45:37.232Z,42.13
2019-03-22T20:48:07.670Z,29.50
2019-03-22T20:50:37.486Z,35.77
2019-03-22T20:53:07.945Z,35.27
2019-03-22T20:55:38.496Z,36.67
2019-03-22T20:58:08.996Z,37.53
2019-03-22T21:00:38.917Z,39.00
2019-03-22T21:03:09.219Z,36.57
2019-03-22T21:05:39.650Z,34.97
2019-03-22T21:08:10.083Z,32.53
2019-03-22T21:10:40.314Z,36.00
2019-03-22T21:13:10.387Z,33.10
2019-03-22T21:15:40.327Z,34.20
2019-03-22T21:18:10.114Z,29.03
2019-03-22T21:20:39.902Z,34.30
2019-03-22T21:23:09.701Z,33.33
2019-03-22T21:25:40.130Z,35.03
2019-03-22T21:28:09.988Z,32.70
2019-03-22T21:30:39.895Z,33.53
2019-03-22T21:33:09.679Z,30.20
2019-03-22T21:35:39.527Z,31.80
2019-03-22T21:38:11.143Z,33.40
2019-03-22T21:40:40.902Z,34.63
2019-03-22T21:43:10.785Z,29.80
2019-03-22T21:45:40.582Z,35.63
2019-03-22T21:48:10.386Z,36.03
2019-03-22T21:50:40.262Z,34.13
2019-03-22T21:53:09.982Z,36.43
2019-03-22T21:55:39.775Z,29.47
2019-03-22T21:58:09.599Z,34.97
2019-03-22T22:00:39.444Z,29.17
2019-03-22T22:03:09.219Z,33.13
2019-03-22T22:05:47.491Z,27.77
2019-03-22T22:08:10.494Z,33.50
2019-03-22T22:10:40.361Z,29.47
2019-03-22T22:13:10.423Z,30.60
2019-03-22T22:15:40.242Z,29.87
2019-03-22T22:18:10.021Z,29.57
2019-03-22T22:20:39.861Z,28.63
2019-03-22T22:23:09.802Z,28.97
2019-03-22T22:25:39.670Z,29.73
2019-03-22T22:28:09.694Z,28.90
2019-03-22T22:30:39.553Z,28.67
2019-03-22T22:33:09.380Z,29.83
2019-03-22T22:35:39.214Z,28.87
2019-03-22T22:38:09.034Z,29.70
2019-03-22T22:40:38.818Z,28.53
2019-03-22T22:43:08.655Z,27.97
2019-03-22T22:45:38.474Z,29.43
2019-03-22T22:48:08.287Z,27.40
2019-03-22T22:50:38.134Z,28.20
2019-03-22T22:53:07.931Z,29.70
2019-03-22T22:55:38.106Z,28.40
2019-03-22T22:58:08.140Z,29.20
2019-03-22T23:00:38.115Z,28.70
2019-03-22T23:03:07.951Z,28.33
2019-03-22T23:05:37.826Z,28.03
2019-03-22T23:08:08.274Z,27.53
2019-03-22T23:10:38.305Z,27.70
2019-03-22T23:13:08.086Z,29.57
2019-03-22T23:15:37.850Z,28.87
2019-03-22T23:18:07.647Z,29.07
2019-03-22T23:20:37.471Z,26.60
2019-03-22T23:23:07.270Z,27.80
2019-03-22T23:25:37.054Z,29.37
2019-03-22T23:28:06.918Z,27.63
2019-03-22T23:30:36.707Z,29.13
2019-03-22T23:33:06.483Z,28.07
2019-03-22T23:35:36.758Z,27.63
2019-03-22T23:38:06.591Z,28.57
2019-03-22T23:40:36.370Z,27.07
2019-03-22T23:43:06.186Z,28.70
2019-03-22T23:45:35.972Z,27.47
2019-03-22T23:48:05.785Z,28.43
2019-03-22T23:50:35.507Z,29.13
2019-03-22T23:53:05.322Z,27.97
2019-03-22T23:55:35.132Z,26.50
2019-03-22T23:58:04.932Z,29.53
